Time;durP1;ratioP1;P1;durP2;ratioP2;P2;SDS_P1;SDS_P2;PMS_P1;PMS_P2;Temp;Humidity;BMP_temperature;BMP_pressure;BME280_temperature;BME280_humidity;BME280_pressure;Samples;Min_cycle;Max_cycle;Signal;HPM_P1;HPM_P2
2022/05/11 00:01:16;;;;;;;9.23;4.53;;;;;;;19.02;43.42;100676.03;5397714;32;35244;-96
2022/05/11 00:04:19;;;;;;;12.30;4.53;;;;;;;18.57;44.65;100670.22;5357090;32;34181;-93
2022/05/11 00:07:21;;;;;;;12.82;5.30;;;;;;;17.62;46.27;100680.91;5369320;32;44323;-94
2022/05/11 00:10:25;;;;;;;11.77;5.03;;;;;;;17.59;46.71;100675.78;5354385;32;33914;-94
2022/05/11 00:13:28;;;;;;;11.30;4.47;;;;;;;18.00;45.86;100673.16;5373035;32;34599;-95
2022/05/11 00:16:31;;;;;;;10.60;4.22;;;;;;;18.04;45.75;100672.00;5380952;32;35744;-93
2022/05/11 00:19:34;;;;;;;13.07;4.57;;;;;;;17.99;46.11;100668.78;5370075;32;34072;-93
2022/05/11 00:22:38;;;;;;;9.03;4.40;;;;;;;17.40;47.39;100669.94;5394822;32;33884;-93
2022/05/11 00:25:40;;;;;;;11.35;4.43;;;;;;;18.29;45.60;100667.69;5381094;32;34585;-93
2022/05/11 00:28:46;;;;;;;10.97;4.60;;;;;;;17.68;47.08;100672.53;5383708;32;33894;-93
2022/05/11 00:31:48;;;;;;;13.10;5.68;;;;;;;17.18;48.72;100670.41;5375670;32;35222;-93
2022/05/11 00:34:54;;;;;;;7.70;4.05;;;;;;;17.22;48.36;100674.59;5375061;32;44438;-93
2022/05/11 00:37:57;;;;;;;12.33;4.67;;;;;;;17.72;47.39;100667.94;5386092;32;33954;-93
2022/05/11 00:41:00;;;;;;;11.47;4.93;;;;;;;17.21;48.78;100671.09;5385391;32;35267;-94
2022/05/11 00:44:05;;;;;;;8.57;4.43;;;;;;;17.75;47.51;100663.25;5391320;32;33882;-93
2022/05/11 00:47:24;;;;;;;10.03;4.50;;;;;;;17.71;47.53;100664.41;5384886;32;34478;-93
2022/05/11 00:50:30;;;;;;;12.52;5.00;;;;;;;17.11;49.45;100663.78;5391265;32;44545;-93
2022/05/11 00:53:35;;;;;;;10.27;5.20;;;;;;;17.06;49.46;100656.06;5387625;32;35377;-92
2022/05/11 00:56:41;;;;;;;10.73;5.23;;;;;;;16.71;50.90;100667.06;5364716;32;35930;-93
2022/05/11 00:59:46;;;;;;;11.73;5.10;;;;;;;17.20;49.58;100664.06;5400959;32;33672;-94
2022/05/11 01:02:56;;;;;;;8.18;4.43;;;;;;;17.16;50.02;100665.19;5372241;32;43023;-93
2022/05/11 01:05:59;;;;;;;10.90;4.63;;;;;;;17.10;50.31;100657.59;5412201;32;34733;-94
2022/05/11 01:09:02;;;;;;;;;;;;;;;16.29;52.54;100657.16;5389262;32;35329;-95
2022/05/11 01:12:09;;;;;;;11.50;4.90;;;;;;;16.57;52.23;100664.34;5377328;32;35419;-93
2022/05/11 01:15:14;;;;;;;10.10;4.77;;;;;;;16.21;53.13;100664.69;5387773;32;33954;-91
2022/05/11 01:18:17;;;;;;;9.20;4.87;;;;;;;16.72;52.50;100667.91;5381448;32;34419;-94
2022/05/11 01:21:21;;;;;;;10.27;5.20;;;;;;;16.78;51.76;100665.72;5383386;32;44256;-94
2022/05/11 01:24:42;;;;;;;9.60;4.83;;;;;;;16.73;51.76;100665.16;5378720;32;33983;-93
2022/05/11 01:27:46;;;;;;;10.50;4.80;;;;;;;16.74;51.90;100672.19;5384038;32;35281;-93
2022/05/11 01:30:51;;;;;;;13.93;5.50;;;;;;;16.80;51.79;100665.62;5387691;32;34126;-93
2022/05/11 01:33:54;;;;;;;9.23;4.83;;;;;;;16.44;52.84;100666.03;5369736;32;34999;-93
2022/05/11 01:36:56;;;;;;;13.83;5.07;;;;;;;16.47;52.91;100669.34;5384950;32;35179;-93
2022/05/11 01:39:58;;;;;;;9.57;5.40;;;;;;;17.03;51.27;100670.41;5384311;32;35704;-94
2022/05/11 01:43:00;;;;;;;12.70;6.23;;;;;;;16.78;52.16;100675.50;5399377;32;34245;-93
2022/05/11 01:46:04;;;;;;;10.65;5.20;;;;;;;16.49;52.81;100672.78;5383930;32;34075;-92
2022/05/11 01:49:06;;;;;;;10.30;5.37;;;;;;;16.08;54.02;100680.47;5402793;32;34038;-93
2022/05/11 01:52:09;;;;;;;10.52;5.40;;;;;;;15.77;54.74;100675.19;5400284;32;38722;-93
2022/05/11 01:55:12;;;;;;;10.70;5.75;;;;;;;16.47;52.67;100671.13;5384202;32;34061;-94
2022/05/11 01:58:15;;;;;;;11.03;6.27;;;;;;;16.42;52.63;100674.06;5404585;32;34207;-94
2022/05/11 02:01:20;;;;;;;11.50;5.93;;;;;;;15.93;54.06;100676.91;5395840;32;34096;-94
2022/05/11 02:07:50;;;;;;;12.00;6.07;;;;;;;16.84;52.09;100671.63;5374326;32;34174;-94
2022/05/11 02:10:53;;;;;;;10.77;5.80;;;;;;;16.78;51.71;100671.03;5377878;32;44366;-92
2022/05/11 02:13:57;;;;;;;11.50;6.00;;;;;;;16.69;52.11;100666.28;5391457;32;35358;-94
2022/05/11 02:17:01;;;;;;;11.33;5.50;;;;;;;17.03;51.16;100677.53;5370625;32;35194;-93
2022/05/11 02:20:04;;;;;;;12.68;6.00;;;;;;;16.45;52.81;100681.00;5394007;32;35834;-94
2022/05/11 02:23:07;;;;;;;12.50;5.95;;;;;;;16.46;53.08;100680.87;5391754;32;34926;-93
2022/05/11 02:26:11;;;;;;;10.35;5.53;;;;;;;16.68;52.10;100677.84;5398362;32;35315;-94
2022/05/11 02:29:14;;;;;;;11.20;5.80;;;;;;;16.45;52.86;100678.34;5399302;32;34880;-94
2022/05/11 02:32:17;;;;;;;11.95;6.43;;;;;;;16.99;51.30;100674.19;5376395;32;33388;-94
2022/05/11 02:35:20;;;;;;;11.90;5.53;;;;;;;16.36;53.07;100671.78;5390320;32;44277;-94
2022/05/11 02:38:28;;;;;;;12.97;6.23;;;;;;;16.69;52.27;100660.13;5365973;32;34019;-94
2022/05/11 02:41:32;;;;;;;13.07;6.07;;;;;;;16.56;52.74;100672.41;5396461;32;34134;-95
2022/05/11 02:44:35;;;;;;;12.05;6.35;;;;;;;16.25;53.48;100671.53;5389318;32;34205;-94
2022/05/11 02:47:38;;;;;;;19.98;7.15;;;;;;;16.34;53.58;100672.81;5384141;32;33976;-92
2022/05/11 02:50:44;;;;;;;16.20;6.97;;;;;;;15.52;55.67;100665.94;5378398;32;34052;-94
2022/05/11 02:53:46;;;;;;;10.90;6.87;;;;;;;16.04;54.76;100665.69;5378867;32;33494;-93
2022/05/11 02:56:49;;;;;;;11.35;6.30;;;;;;;15.64;55.89;100673.22;5398671;32;35277;-92
2022/05/11 02:59:51;;;;;;;15.00;6.40;;;;;;;15.96;55.11;100673.22;5391756;32;42495;-93
2022/05/11 03:02:53;;;;;;;12.85;5.97;;;;;;;15.87;55.06;100668.44;5413741;32;33540;-93
2022/05/11 03:05:55;;;;;;;15.57;7.83;;;;;;;16.19;54.07;100662.16;5391682;32;36009;-93
2022/05/11 03:08:59;;;;;;;12.98;6.60;;;;;;;16.00;55.13;100668.59;5384726;32;35210;-92
2022/05/11 03:12:01;;;;;;;17.45;7.55;;;;;;;16.08;54.50;100669.84;5381016;32;35270;-93
2022/05/11 03:15:04;;;;;;;13.95;6.95;;;;;;;15.57;56.27;100661.22;5380705;32;35000;-93
2022/05/11 03:18:08;;;;;;;17.73;7.00;;;;;;;16.09;54.83;100674.22;5384944;32;35848;-92
2022/05/11 03:21:11;;;;;;;13.43;7.32;;;;;;;15.81;55.46;100674.09;5382682;32;35458;-94
2022/05/11 03:24:14;;;;;;;15.05;6.87;;;;;;;15.43;57.08;100682.31;5404138;32;34594;-93
2022/05/11 03:27:16;;;;;;;;;;;;;;;15.70;56.26;100662.28;5383689;32;35734;-93
2022/05/11 03:30:18;;;;;;;14.67;6.83;;;;;;;15.80;55.83;100678.53;5372443;32;34306;-94
2022/05/11 03:36:42;;;;;;;13.57;6.40;;;;;;;16.08;54.84;100687.56;5384035;32;36359;-94
2022/05/11 03:39:45;;;;;;;11.93;6.65;;;;;;;16.00;55.35;100689.81;5409815;32;35848;-93
2022/05/11 03:42:48;;;;;;;10.55;6.43;;;;;;;16.69;53.04;100687.50;5385956;32;34663;-93
2022/05/11 03:45:51;;;;;;;14.17;6.23;;;;;;;16.57;53.23;100680.28;5395368;32;44500;-93
2022/05/11 03:48:53;;;;;;;17.23;7.15;;;;;;;16.56;53.27;100689.19;5399816;32;34139;-94
2022/05/11 03:51:56;;;;;;;15.27;6.77;;;;;;;16.82;53.00;100692.97;5368555;32;33426;-93
2022/05/11 03:54:58;;;;;;;11.60;6.57;;;;;;;16.87;52.76;100692.66;5389566;32;35328;-93
2022/05/11 03:58:01;;;;;;;16.27;7.43;;;;;;;16.85;52.38;100681.28;5383707;32;34400;-93
2022/05/11 04:01:03;;;;;;;12.13;6.72;;;;;;;16.72;53.11;100694.44;5400884;32;33905;-95
2022/05/11 04:04:06;;;;;;;11.73;6.53;;;;;;;16.98;52.30;100703.50;5383449;32;34175;-93
2022/05/11 04:07:08;;;;;;;12.93;7.05;;;;;;;17.39;51.23;100698.31;5375684;32;33819;-91
2022/05/11 04:10:12;;;;;;;13.40;8.20;;;;;;;17.05;52.25;100691.56;5409825;32;35150;-92
2022/05/11 04:13:15;;;;;;;12.77;7.40;;;;;;;16.43;54.35;100704.13;5371218;32;35133;-92
2022/05/11 04:16:18;;;;;;;13.35;7.12;;;;;;;15.99;56.01;100704.84;5411708;32;33434;-93
2022/05/11 04:19:21;;;;;;;17.12;8.00;;;;;;;17.04;53.03;100705.78;5411444;32;44836;-95
2022/05/11 04:22:23;;;;;;;16.62;8.65;;;;;;;17.53;51.35;100702.75;5410299;32;36161;-94
2022/05/11 04:25:26;;;;;;;17.77;7.90;;;;;;;17.64;50.83;100708.22;5397069;32;35857;-94
2022/05/11 04:28:30;;;;;;;16.55;8.18;;;;;;;16.53;54.54;100716.72;5386160;32;35221;-94
2022/05/11 04:31:32;;;;;;;16.57;7.67;;;;;;;17.33;52.09;100720.78;5382083;32;34706;-93
2022/05/11 04:34:38;;;;;;;21.50;9.13;;;;;;;17.54;51.23;100709.78;5392924;32;35379;-94
2022/05/11 04:37:40;;;;;;;22.57;8.57;;;;;;;17.13;52.85;100710.56;5382227;32;35021;-93
2022/05/11 04:40:43;;;;;;;23.55;7.82;;;;;;;17.34;52.19;100711.03;5397378;32;34378;-91
2022/05/11 04:43:46;;;;;;;20.88;9.38;;;;;;;18.55;48.70;100703.22;5376641;32;34982;-94
2022/05/11 04:46:50;;;;;;;17.50;8.27;;;;;;;18.87;48.04;100711.69;5382442;32;43955;-94
2022/05/11 04:49:53;;;;;;;14.05;8.07;;;;;;;20.40;44.31;100708.75;5401805;32;34041;-92
2022/05/11 04:52:57;;;;;;;16.48;7.85;;;;;;;19.83;44.81;100715.59;5409053;32;34233;-94
2022/05/11 04:56:01;;;;;;;15.27;7.87;;;;;;;20.71;43.50;100708.16;5443589;32;36522;-96
2022/05/11 04:59:08;;;;;;;;;;;;;;;19.48;45.95;100707.44;5430700;32;34184;-95
2022/05/11 05:02:19;;;;;;;29.27;10.48;;;;;;;19.62;45.50;100717.12;5415796;32;35751;-95
2022/05/11 05:05:24;;;;;;;16.95;8.70;;;;;;;19.35;46.28;100720.78;5419851;32;44248;-95
2022/05/11 05:08:29;;;;;;;20.00;8.93;;;;;;;21.33;41.53;100712.31;5432178;32;34681;-96
2022/05/11 05:11:36;;;;;;;17.00;9.88;;;;;;;20.50;43.13;100715.13;5431202;32;34148;-94
2022/05/11 05:14:49;;;;;;;22.40;10.30;;;;;;;20.82;42.24;100702.84;5409712;32;44623;-93
2022/05/11 05:17:52;;;;;;;14.52;8.85;;;;;;;22.36;38.91;100718.25;5414930;32;34791;-96
2022/05/11 05:20:56;;;;;;;17.33;10.00;;;;;;;23.00;37.57;100707.47;5400096;32;34381;-95
2022/05/11 05:23:59;;;;;;;14.52;8.73;;;;;;;23.17;37.06;100719.41;5384089;32;34430;-94
2022/05/11 05:27:06;;;;;;;57.72;22.77;;;;;;;21.31;40.68;100720.44;5387195;32;34496;-95
2022/05/11 05:33:34;;;;;;;20.77;10.80;;;;;;;21.61;40.98;100717.16;5378060;32;34539;-95
2022/05/11 05:36:36;;;;;;;19.65;10.85;;;;;;;22.44;39.49;100713.94;5397315;32;34264;-90
2022/05/11 05:39:39;;;;;;;16.17;10.13;;;;;;;21.67;40.62;100723.84;5380999;32;33970;-89
2022/05/11 05:42:44;;;;;;;18.37;10.50;;;;;;;22.84;38.72;100710.56;5366159;32;34330;-92
2022/05/11 05:45:50;;;;;;;22.92;11.20;;;;;;;22.28;39.32;100715.34;5390214;32;34105;-91
2022/05/11 05:48:53;;;;;;;17.42;9.52;;;;;;;23.50;37.95;100713.75;5376405;32;44388;-91
2022/05/11 05:51:55;;;;;;;12.70;9.10;;;;;;;25.68;32.56;100707.94;5386299;32;35296;-92
2022/05/11 05:54:58;;;;;;;;;;;;;;;26.33;31.06;100705.13;5389416;32;37126;-94
2022/05/11 05:58:07;;;;;;;17.15;9.82;;;;;;;26.39;30.84;100704.50;5355837;27;36187;-74
2022/05/11 06:01:09;;;;;;;;;;;;;;;26.40;30.45;100701.69;5328211;32;34301;-70
2022/05/11 06:04:12;;;;;;;26.17;12.25;;;;;;;25.26;32.03;100710.25;5316893;32;34352;-68
2022/05/11 06:07:15;;;;;;;;;;;;;;;23.72;36.84;100718.13;5349466;32;35325;-86
2022/05/11 06:10:17;;;;;;;20.17;11.70;;;;;;;23.94;35.69;100714.34;5336025;32;36326;-69
2022/05/11 06:13:23;;;;;;;19.50;11.75;;;;;;;25.56;33.21;100699.19;5328633;32;33209;-70
2022/05/11 06:16:26;;;;;;;21.80;11.60;;;;;;;24.56;35.06;100712.34;5338644;32;35787;-81
2022/05/11 06:19:28;;;;;;;18.23;11.93;;;;;;;23.61;36.79;100715.53;5343328;32;36343;-73
2022/05/11 06:22:31;;;;;;;20.65;12.80;;;;;;;26.70;31.45;100704.97;5345293;32;34472;-72
2022/05/11 06:25:35;;;;;;;23.25;12.23;;;;;;;25.10;34.29;100714.38;5337045;32;34371;-76
2022/05/11 06:28:44;;;;;;;25.23;11.73;;;;;;;25.18;34.35;100712.81;5345855;32;34063;-78
2022/05/11 06:31:52;;;;;;;19.02;11.25;;;;;;;26.06;32.86;100716.81;5310577;32;43423;-78
2022/05/11 06:34:55;;;;;;;19.98;11.60;;;;;;;27.32;30.45;100713.84;5343507;32;35222;-77
2022/05/11 06:38:03;;;;;;;18.15;11.82;;;;;;;25.39;33.29;100714.31;5330555;32;35781;-77
2022/05/11 06:41:16;;;;;;;21.42;11.55;;;;;;;25.70;33.38;100702.38;5340924;32;34280;-71
2022/05/11 06:44:21;;;;;;;21.80;11.68;;;;;;;26.27;32.31;100709.28;5346275;32;34124;-76
2022/05/11 06:47:23;;;;;;;21.48;11.55;;;;;;;26.45;31.75;100715.53;5333681;32;44383;-74
2022/05/11 06:50:27;;;;;;;20.55;10.85;;;;;;;26.77;31.55;100705.19;5339018;32;36747;-77
2022/05/11 06:59:16;;;;;;;21.37;11.90;;;;;;;27.77;29.57;100702.78;5336600;32;34100;-82
2022/05/11 07:00:15;;;;;;;16.95;11.57;;;;;;;27.86;29.35;100710.91;5344579;32;35445;-81
2022/05/11 07:03:18;;;;;;;26.77;11.98;;;;;;;27.25;29.94;100697.47;5328573;32;35572;-85
2022/05/11 07:06:21;;;;;;;21.95;11.02;;;;;;;28.86;27.74;100689.06;5354678;32;44430;-83
2022/05/11 07:09:26;;;;;;;21.80;10.90;;;;;;;29.25;27.11;100693.75;5340216;32;35233;-73
2022/05/11 07:12:38;;;;;;;21.73;11.00;;;;;;;28.55;27.77;100691.63;5318524;32;33927;-71
2022/05/11 07:15:41;;;;;;;21.70;10.90;;;;;;;28.06;28.79;100696.09;5343097;32;35846;-71
2022/05/11 07:18:43;;;;;;;22.17;10.68;;;;;;;28.49;28.07;100691.44;5345782;32;34060;-71
2022/05/11 07:21:45;;;;;;;18.98;9.90;;;;;;;29.58;26.24;100683.66;5345687;32;34093;-70
2022/05/11 07:24:48;;;;;;;19.00;8.65;;;;;;;28.56;27.83;100690.59;5325089;32;35462;-71
2022/05/11 07:27:51;;;;;;;17.02;8.10;;;;;;;29.49;26.42;100684.66;5354490;32;46354;-71
2022/05/11 07:30:54;;;;;;;20.88;8.30;;;;;;;30.31;24.80;100681.56;5337590;32;35316;-73
2022/05/11 07:33:56;;;;;;;14.75;7.43;;;;;;;30.40;24.72;100684.03;5343622;32;33984;-70
2022/05/11 07:36:59;;;;;;;15.35;6.50;;;;;;;30.70;24.01;100682.25;5357825;32;35533;-75
2022/05/11 07:40:03;;;;;;;10.07;5.10;;;;;;;31.44;22.48;100676.09;5337275;32;34133;-74
2022/05/11 07:43:06;;;;;;;12.30;4.93;;;;;;;30.15;23.48;100669.81;5355303;32;34113;-76
2022/05/11 07:46:11;;;;;;;11.30;5.12;;;;;;;33.04;20.15;100668.50;5348620;32;34064;-72
2022/05/11 07:49:14;;;;;;;11.02;4.87;;;;;;;29.69;24.67;100679.72;5356810;32;34194;-72
2022/05/11 07:52:16;;;;;;;14.55;5.62;;;;;;;29.85;24.20;100679.62;5344679;32;32584;-82
2022/05/11 07:55:24;;;;;;;12.37;6.87;;;;;;;31.18;22.47;100671.94;5338922;32;47193;-82
2022/05/11 08:01:47;;;;;;;13.07;4.32;;;;;;;31.60;21.67;100675.84;5348835;32;34028;-74
2022/05/11 08:04:50;;;;;;;10.30;3.95;;;;;;;33.10;20.04;100668.56;5348164;32;43062;-75
2022/05/11 08:07:57;;;;;;;10.40;4.25;;;;;;;33.02;19.65;100671.44;5331580;32;34543;-77
2022/05/11 08:11:00;;;;;;;10.63;4.65;;;;;;;32.87;20.18;100662.53;5332730;32;35128;-73
2022/05/11 08:14:03;;;;;;;9.85;3.17;;;;;;;34.15;19.04;100661.06;5338537;32;34601;-75
2022/05/11 08:17:05;;;;;;;8.23;3.78;;;;;;;33.93;18.68;100661.19;5340720;32;35777;-76
2022/05/11 08:20:14;;;;;;;10.77;4.00;;;;;;;31.17;22.04;100663.97;5338203;32;34217;-71
2022/05/11 08:23:16;;;;;;;12.35;4.32;;;;;;;33.39;19.75;100655.75;5332487;32;33988;-70
2022/05/11 08:26:19;;;;;;;10.55;3.90;;;;;;;34.12;19.19;100661.44;5349916;32;43376;-71
2022/05/11 08:36:24;;;;;;;7.07;3.45;;;;;;;30.79;22.56;100665.94;5345553;32;34505;-78
2022/05/11 08:39:26;;;;;;;7.95;3.62;;;;;;;31.85;20.90;100662.81;5351148;32;33003;-77
2022/05/11 08:42:31;;;;;;;7.47;3.75;;;;;;;33.90;19.16;100658.03;5350196;32;33891;-77
2022/05/11 08:45:39;;;;;;;9.05;3.85;;;;;;;32.03;21.27;100665.94;5341960;32;35150;-75
2022/05/11 08:49:01;;;;;;;9.57;3.72;;;;;;;32.37;21.35;100660.84;5340617;32;35313;-74
2022/05/11 08:52:06;;;;;;;10.68;3.22;;;;;;;32.51;21.11;100658.03;5347562;32;35540;-78
2022/05/11 08:55:29;;;;;;;9.52;3.30;;;;;;;32.64;20.26;100660.03;5337424;32;33823;-75
2022/05/11 08:58:36;;;;;;;8.43;3.00;;;;;;;32.00;20.97;100665.47;5349019;32;34116;-86
2022/05/11 09:01:48;;;;;;;7.65;3.17;;;;;;;34.63;17.07;100644.50;5331472;32;34135;-72
2022/05/11 09:04:57;;;;;;;8.02;2.80;;;;;;;32.58;18.96;100647.22;5340840;32;44420;-73
2022/05/11 09:07:59;;;;;;;6.53;2.70;;;;;;;34.91;16.60;100639.66;5346225;32;35416;-70
2022/05/11 09:11:02;;;;;;;5.47;2.67;;;;;;;34.79;16.80;100644.09;5349419;32;35105;-73
2022/05/11 09:14:04;;;;;;;6.07;2.70;;;;;;;34.43;17.75;100653.53;5328437;32;35675;-78
2022/05/11 09:17:20;;;;;;;7.80;3.22;;;;;;;33.77;18.00;100647.09;5348467;32;34070;-73
2022/05/11 09:20:22;;;;;;;6.85;3.30;;;;;;;32.10;19.45;100646.97;5336388;32;46498;-70
2022/05/11 09:23:36;;;;;;;6.72;2.65;;;;;;;33.65;17.94;100649.56;5354534;32;35396;-69
2022/05/11 09:26:44;;;;;;;7.32;3.30;;;;;;;32.78;18.35;100642.78;5339105;32;35269;-78
2022/05/11 09:29:56;;;;;;;7.62;2.95;;;;;;;34.77;17.06;100632.50;5353743;32;35571;-69
2022/05/11 09:33:15;;;;;;;10.45;3.65;;;;;;;34.36;16.65;100640.91;5335514;32;34583;-70
2022/05/11 09:36:35;;;;;;;6.32;3.50;;;;;;;36.45;14.21;100635.97;5336963;32;34090;-68
2022/05/11 09:39:51;;;;;;;6.00;3.03;;;;;;;37.43;13.71;100639.88;5352060;32;34120;-72
2022/05/11 09:43:00;;;;;;;10.43;3.33;;;;;;;35.41;15.66;100644.56;5343297;32;44818;-70
2022/05/11 09:46:31;;;;;;;5.93;2.83;;;;;;;35.97;15.34;100649.38;5342006;32;35147;-70
2022/05/11 09:49:35;;;;;;;9.13;3.85;;;;;;;34.40;16.35;100632.12;5352702;32;34085;-73
2022/05/11 09:52:38;;;;;;;5.82;2.70;;;;;;;34.53;16.27;100641.38;5326059;32;33999;-72
2022/05/11 09:55:40;;;;;;;6.18;2.90;;;;;;;35.28;15.65;100637.25;5345557;32;35318;-67
2022/05/11 09:58:44;;;;;;;6.22;2.90;;;;;;;34.32;16.56;100642.38;5332445;32;34031;-75
2022/05/11 10:01:49;;;;;;;3.78;2.72;;;;;;;36.69;14.08;100637.03;5351413;32;34183;-71
2022/05/11 10:05:08;;;;;;;8.70;2.50;;;;;;;34.97;15.71;100637.97;5337053;32;45246;-71
2022/05/11 10:08:25;;;;;;;6.78;2.62;;;;;;;36.77;14.62;100638.62;5339711;32;35367;-77
2022/05/11 10:11:45;;;;;;;7.60;2.78;;;;;;;35.49;15.74;100637.00;5339491;32;44113;-76
2022/05/11 10:21:54;;;;;;;6.05;2.70;;;;;;;36.62;14.66;100622.56;5355423;32;34256;-77
2022/05/11 10:25:21;;;;;;;6.70;2.67;;;;;;;36.54;14.73;100620.97;5332696;32;44462;-70
2022/05/11 10:28:33;;;;;;;5.82;2.97;;;;;;;38.19;13.19;100620.84;5333218;32;44509;-71
2022/05/11 10:31:45;;;;;;;7.60;2.78;;;;;;;37.88;13.27;100629.38;5349397;32;34105;-71
2022/05/11 10:35:00;;;;;;;7.43;3.35;;;;;;;32.19;18.26;100629.47;5351919;32;34507;-81
2022/05/11 10:38:24;;;;;;;10.23;3.53;;;;;;;33.91;16.84;100624.28;5354895;32;34770;-77
2022/05/11 10:41:38;;;;;;;6.03;2.92;;;;;;;32.60;18.08;100620.66;5342313;32;44479;-82
2022/05/11 10:45:23;;;;;;;7.85;3.37;;;;;;;36.43;14.55;100609.91;5343330;32;218953;-76
2022/05/11 10:48:45;;;;;;;6.43;2.42;;;;;;;37.28;13.43;100608.16;5354843;32;35336;-77
2022/05/11 10:52:35;;;;;;;5.82;2.40;;;;;;;34.93;15.43;100614.88;5344976;32;35201;-76
2022/05/11 10:55:40;;;;;;;7.43;2.92;;;;;;;33.79;16.53;100606.84;5344151;32;34190;-76
2022/05/11 10:58:51;;;;;;;6.90;2.60;;;;;;;35.06;15.82;100608.56;5353819;32;34861;-81
2022/05/11 11:02:30;;;;;;;8.48;2.78;;;;;;;37.30;13.85;100602.47;5340865;32;44743;-80
2022/05/11 11:05:41;;;;;;;5.37;3.28;;;;;;;35.87;14.82;100613.44;5340848;32;34203;-72
2022/05/11 11:08:51;;;;;;;10.05;3.37;;;;;;;36.16;14.97;100609.28;5337441;32;36337;-74
2022/05/11 11:11:53;;;;;;;13.98;3.25;;;;;;;34.37;17.01;100607.97;5328278;32;46824;-69
2022/05/11 11:15:00;;;;;;;6.87;2.97;;;;;;;34.16;16.54;100591.81;5338733;32;34353;-70
2022/05/11 11:18:04;;;;;;;4.87;2.70;;;;;;;34.70;16.21;100594.31;5334764;32;35292;-74
2022/05/11 11:21:08;;;;;;;6.93;2.53;;;;;;;37.65;13.22;100581.56;5343245;32;35766;-72
2022/05/11 11:24:22;;;;;;;6.75;2.50;;;;;;;38.79;12.28;100580.56;5336033;32;34417;-72
2022/05/11 11:28:02;;;;;;;6.82;2.83;;;;;;;35.61;14.24;100592.56;5330502;32;44467;-72
2022/05/11 11:31:12;;;;;;;9.70;3.27;;;;;;;38.53;12.21;100582.72;5355453;32;35316;-78
2022/05/11 11:34:19;;;;;;;6.85;2.50;;;;;;;37.73;13.12;100576.78;5338181;32;34350;-75
2022/05/11 11:37:27;;;;;;;5.05;2.50;;;;;;;37.14;13.35;100569.13;5343484;32;46590;-75
2022/05/11 11:40:33;;;;;;;6.60;2.35;;;;;;;38.66;12.06;100567.91;5338062;32;35602;-84
2022/05/11 11:43:43;;;;;;;5.57;2.50;;;;;;;40.61;10.64;100560.31;5335768;32;35425;-84
2022/05/11 11:46:45;;;;;;;6.40;2.60;;;;;;;39.83;11.33;100551.06;5354309;32;35542;-72
2022/05/11 11:49:48;;;;;;;6.68;2.70;;;;;;;35.83;14.13;100563.81;5341801;32;34322;-80
2022/05/11 11:53:06;;;;;;;5.65;2.85;;;;;;;38.96;11.60;100548.50;5349744;32;48209;-73
2022/05/11 11:56:24;;;;;;;9.27;2.60;;;;;;;38.90;11.89;100549.47;5330278;32;35962;-75
2022/05/11 11:59:28;;;;;;;6.07;2.70;;;;;;;37.55;12.89;100548.38;5340267;32;44780;-74
2022/05/11 12:02:36;;;;;;;12.95;2.78;;;;;;;36.68;13.49;100545.00;5334846;32;33906;-77
2022/05/11 12:05:48;;;;;;;4.43;2.33;;;;;;;36.67;13.35;100537.03;5335741;32;34025;-85
2022/05/11 12:15:38;;;;;;;5.12;2.65;;;;;;;39.94;10.96;100532.81;5336698;32;34202;-73
2022/05/11 12:18:42;;;;;;;10.43;2.78;;;;;;;36.22;13.94;100537.25;5346447;32;35656;-75
2022/05/11 12:22:12;;;;;;;7.30;3.00;;;;;;;35.09;15.32;100537.09;5338287;32;34333;-79
2022/05/11 12:25:29;;;;;;;6.30;2.85;;;;;;;35.60;14.84;100538.94;5345831;32;34196;-77
2022/05/11 12:28:38;;;;;;;9.18;2.90;;;;;;;34.67;15.48;100531.13;5349404;32;34703;-76
2022/05/11 12:31:41;;;;;;;5.75;2.80;;;;;;;33.67;16.31;100524.81;5333010;32;34043;-76
2022/05/11 12:34:46;;;;;;;5.65;3.05;;;;;;;32.40;17.55;100529.91;5353167;32;34191;-75
2022/05/11 12:38:06;;;;;;;6.28;2.90;;;;;;;34.14;15.78;100521.13;5341340;32;47372;-74
2022/05/11 12:41:19;;;;;;;7.40;3.10;;;;;;;32.86;17.04;100524.75;5342399;32;35472;-77
2022/05/11 12:44:29;;;;;;;10.35;3.60;;;;;;;32.62;17.32;100528.78;5351870;32;45011;-76
2022/05/11 12:47:43;;;;;;;5.68;2.55;;;;;;;30.48;19.44;100518.53;5336436;32;34385;-71
2022/05/11 12:50:53;;;;;;;6.78;3.08;;;;;;;31.43;17.77;100522.28;5340857;32;35550;-75
2022/05/11 12:53:59;;;;;;;12.00;8.52;;;;;;;31.31;17.64;100516.53;5334613;32;47121;-74
2022/05/11 12:57:08;;;;;;;6.35;2.83;;;;;;;31.14;18.16;100513.16;5347420;32;34371;-77
2022/05/11 13:00:14;;;;;;;8.20;3.40;;;;;;;30.88;18.88;100508.25;5346885;32;34679;-79
2022/05/11 13:03:27;;;;;;;5.32;3.03;;;;;;;31.25;18.66;100506.44;5330971;32;33963;-75
2022/05/11 13:06:39;;;;;;;8.20;3.37;;;;;;;31.74;17.66;100495.66;5346282;32;37494;-81
2022/05/11 13:09:45;;;;;;;8.43;2.55;;;;;;;28.58;20.68;100499.28;5337934;32;35280;-74
2022/05/11 13:12:51;;;;;;;8.15;3.75;;;;;;;29.68;20.16;100500.09;5328123;32;34106;-75
2022/05/11 13:16:02;;;;;;;7.70;3.45;;;;;;;28.89;21.11;100498.50;5344059;32;44569;-75
2022/05/11 13:19:06;;;;;;;10.27;3.40;;;;;;;30.15;19.81;100499.06;5350864;32;34025;-75
2022/05/11 13:22:14;;;;;;;5.93;2.80;;;;;;;30.10;19.77;100492.50;5354307;32;35443;-74
2022/05/11 13:25:45;;;;;;;7.90;3.15;;;;;;;30.33;19.44;100495.13;5340022;32;34673;-73
2022/05/11 13:28:59;;;;;;;8.52;3.78;;;;;;;29.70;19.88;100482.84;5345443;32;34252;-70
2022/05/11 13:32:08;;;;;;;9.15;2.97;;;;;;;29.87;19.98;100481.66;5336398;32;35078;-75
2022/05/11 13:35:17;;;;;;;5.80;2.92;;;;;;;30.52;19.25;100469.34;5335944;32;35610;-72
2022/05/11 13:38:19;;;;;;;10.23;4.87;;;;;;;30.82;18.87;100475.62;5347692;32;42815;-74
2022/05/11 13:41:25;;;;;;;6.68;3.12;;;;;;;31.40;18.28;100462.94;5335738;32;34074;-78
2022/05/11 13:44:40;;;;;;;6.00;2.90;;;;;;;30.95;18.53;100460.34;5349278;32;34307;-79
2022/05/11 13:51:17;;;;;;;6.93;3.08;;;;;;;29.58;19.82;100450.78;5342983;32;34320;-74
2022/05/11 13:54:27;;;;;;;9.07;3.33;;;;;;;29.52;20.29;100456.91;5351478;32;44742;-76
2022/05/11 13:57:35;;;;;;;9.05;3.00;;;;;;;30.89;19.33;100450.25;5333844;32;37225;-75
2022/05/11 14:00:39;;;;;;;7.75;3.12;;;;;;;29.11;20.90;100454.47;5317271;32;37429;-69
2022/05/11 14:03:50;;;;;;;7.20;3.72;;;;;;;29.04;20.85;100448.06;5345077;32;35425;-70
2022/05/11 14:06:59;;;;;;;5.87;2.80;;;;;;;30.41;20.16;100441.69;5341389;32;44715;-71
2022/05/11 14:10:02;;;;;;;8.48;3.20;;;;;;;31.18;19.09;100424.91;5349012;32;35466;-69
2022/05/11 14:13:05;;;;;;;8.25;2.80;;;;;;;29.58;20.54;100441.81;5318499;32;34096;-68
2022/05/11 14:16:09;;;;;;;6.97;2.97;;;;;;;29.20;21.02;100436.31;5349448;32;34272;-69
2022/05/11 14:19:15;;;;;;;6.28;2.90;;;;;;;29.84;20.40;100433.28;5337361;32;34221;-70
2022/05/11 14:22:17;;;;;;;9.48;3.37;;;;;;;30.14;20.50;100436.87;5319597;32;35010;-71
2022/05/11 14:25:21;;;;;;;5.40;3.08;;;;;;;29.78;21.01;100431.31;5348340;32;44637;-72
2022/05/11 14:28:44;;;;;;;7.12;3.00;;;;;;;30.81;19.64;100434.09;5330400;32;34489;-74
2022/05/11 14:31:47;;;;;;;4.47;2.80;;;;;;;30.57;19.56;100429.78;5336910;32;34034;-74
2022/05/11 14:34:50;;;;;;;4.82;2.78;;;;;;;29.09;21.20;100425.88;5332950;32;44429;-74
2022/05/11 14:37:52;;;;;;;8.52;3.28;;;;;;;28.43;21.82;100425.34;5334056;32;34130;-81
2022/05/11 14:41:00;;;;;;;5.78;3.08;;;;;;;29.60;20.91;100413.50;5345191;32;34056;-84
2022/05/11 14:44:02;;;;;;;11.85;5.47;;;;;;;29.22;21.12;100418.00;5333599;32;35457;-83
2022/05/11 14:47:05;;;;;;;6.05;2.85;;;;;;;29.59;21.12;100416.41;5351398;32;34178;-75
2022/05/11 14:50:10;;;;;;;7.72;3.35;;;;;;;30.55;19.28;100415.56;5333129;32;34146;-73
2022/05/11 14:53:14;;;;;;;13.90;3.42;;;;;;;30.73;18.77;100413.34;5340191;32;34025;-74
2022/05/11 14:56:17;;;;;;;5.72;3.15;;;;;;;29.29;21.14;100404.59;5332306;32;35597;-75
2022/05/11 15:02:41;;;;;;;6.68;2.97;;;;;;;30.55;20.00;100404.72;5345877;32;34635;-84
2022/05/11 15:05:43;;;;;;;10.93;3.40;;;;;;;30.30;19.77;100406.91;5333152;32;33964;-74
2022/05/11 15:08:51;;;;;;;5.53;2.92;;;;;;;30.17;20.22;100407.56;5353475;32;34641;-83